In Rescue
 
Open Full Screen Window  High Contrast Mode
Wind Gusting 00 knots
09
July 11, 2020 1:28 PM EDT
Weather Information
Wind Direction
  310 °
Wind Speed
  09 kt (10 mph)
Wind Gust
  00 kt (0 mph)
Altimeter
29.93 in
Visibility
10 SM
Temperature
29° C
84° F
Dewpoint
16° C
61° F
Humidity
45%
1hr Rain Fall
00.00 in.
24hr Rain Fall
00.00 in.
Sky Condition
Broken @ 7,000 ft
Scattered @ 5,000 ft
VFR

METAR KI69 111728Z AUTO 31009KT 10SM SCT050 BKN070 29/16 A2993 RMK AO2 T02900160

FAA Disclaimer: The data displayed is for advisory purposes only and is not to be used for flight planning or operations.